Time;durP1;ratioP1;P1;durP2;ratioP2;P2;SDS_P1;SDS_P2;PMS_P1;PMS_P2;Temp;Humidity;BMP_temperature;BMP_pressure;BME280_temperature;BME280_humidity;BME280_pressure;Samples;Min_cycle;Max_cycle;Signal;HPM_P1;HPM_P2
2023/10/08 00:00:53;;;;;;;17.25;7.90;;;;;;;13.14;76.16;100694.38;5027757;28;20041;-68
2023/10/08 00:03:20;;;;;;;13.48;7.88;;;;;;;13.01;77.06;100685.38;5026934;28;20123;-69
2023/10/08 00:05:46;;;;;;;15.20;8.82;;;;;;;13.01;77.69;100690.56;5025448;28;20033;-68
2023/10/08 00:08:16;;;;;;;13.07;7.32;;;;;;;13.01;77.76;100695.75;5025981;28;20049;-68
2023/10/08 00:11:05;;;;;;;17.00;8.07;;;;;;;13.08;77.78;100692.50;5006155;28;20038;-68
2023/10/08 00:13:31;;;;;;;16.33;7.72;;;;;;;13.11;77.54;100679.63;5014412;28;20527;-67
2023/10/08 00:15:57;;;;;;;15.25;7.40;;;;;;;13.20;77.76;100686.78;5017214;28;20115;-67
2023/10/08 00:18:23;;;;;;;14.10;7.68;;;;;;;13.26;77.62;100697.34;5028757;28;20041;-68
2023/10/08 00:21:15;;;;;;;15.95;7.22;;;;;;;13.35;77.20;100695.88;5025205;28;20056;-68
2023/10/08 00:24:00;;;;;;;13.93;7.78;;;;;;;13.26;77.55;100686.97;5009668;28;20057;-68
2023/10/08 00:26:29;;;;;;;15.32;7.53;;;;;;;13.15;77.68;100671.97;5028304;28;20042;-69
2023/10/08 00:29:01;;;;;;;12.20;6.90;;;;;;;13.01;77.34;100635.22;5028511;28;20124;-68
2023/10/08 00:31:32;;;;;;;11.75;6.55;;;;;;;13.30;77.05;100680.16;5042142;28;20482;-68
2023/10/08 00:33:58;;;;;;;16.52;7.18;;;;;;;13.17;76.80;100652.13;5008658;28;20040;-68
2023/10/08 00:36:24;;;;;;;12.90;7.07;;;;;;;13.22;76.56;100654.03;5008752;28;20153;-68
2023/10/08 00:38:58;;;;;;;14.60;7.50;;;;;;;13.39;75.83;100666.63;5008354;28;20046;-69
2023/10/08 00:41:28;;;;;;;14.07;7.70;;;;;;;13.53;75.22;100659.22;5024610;28;20110;-69
2023/10/08 00:43:56;;;;;;;10.52;6.40;;;;;;;13.58;76.48;100660.22;5070946;28;20099;-69
2023/10/08 00:46:26;;;;;;;10.05;6.07;;;;;;;13.40;77.49;100652.81;5070783;28;20072;-69
2023/10/08 00:48:55;;;;;;;;;;;;;;;13.35;78.14;100652.66;5071389;28;20058;-69
2023/10/08 00:51:40;;;;;;;14.10;7.10;;;;;;;13.07;79.63;100651.88;5070320;28;19987;-69
2023/10/08 00:54:08;;;;;;;13.55;7.22;;;;;;;13.04;79.83;100651.75;5069382;28;20086;-69
2023/10/08 00:59:16;;;;;;;14.60;6.45;;;;;;;12.89;79.93;100656.50;5070192;28;20037;-69
2023/10/08 01:01:51;;;;;;;12.25;6.63;;;;;;;12.71;80.21;100639.56;5070130;28;20371;-69
2023/10/08 01:04:26;;;;;;;11.73;7.05;;;;;;;12.61;80.79;100656.50;5070385;28;20458;-69
2023/10/08 01:07:01;;;;;;;13.02;6.95;;;;;;;12.31;81.65;100627.91;5070061;28;20508;-69
2023/10/08 01:09:37;;;;;;;10.38;6.53;;;;;;;12.42;81.66;100652.47;5069812;28;20036;-69
2023/10/08 01:12:19;;;;;;;13.68;7.32;;;;;;;12.30;82.12;100631.34;5069693;28;20036;-69
2023/10/08 01:14:46;;;;;;;13.95;6.70;;;;;;;12.06;81.71;100601.25;5069741;28;20040;-69
2023/10/08 01:17:19;;;;;;;12.25;7.60;;;;;;;12.29;81.90;100638.22;5069649;28;20488;-69
2023/10/08 01:19:53;;;;;;;13.55;6.57;;;;;;;11.92;81.72;100577.44;5070162;28;20052;-68
2023/10/08 01:22:21;;;;;;;10.85;6.10;;;;;;;12.14;81.77;100599.78;5069653;28;20056;-68
2023/10/08 01:24:50;;;;;;;13.95;6.32;;;;;;;12.31;81.50;100627.91;5069611;28;20039;-69
2023/10/08 01:27:21;;;;;;;11.10;7.10;;;;;;;11.97;82.08;100599.25;5069473;28;20044;-69
2023/10/08 01:29:50;;;;;;;12.23;7.35;;;;;;;12.10;82.69;100625.50;5069511;28;20037;-69
2023/10/08 01:32:16;;;;;;;11.88;6.53;;;;;;;12.29;82.22;100629.59;5079192;28;20048;-69
2023/10/08 01:34:45;;;;;;;10.13;6.97;;;;;;;12.12;83.26;100616.09;5071692;28;20040;-68
2023/10/08 01:37:13;;;;;;;13.30;7.28;;;;;;;12.06;83.82;100614.19;5089583;28;20036;-68
2023/10/08 01:39:42;;;;;;;14.20;7.15;;;;;;;11.81;84.49;100581.38;5089778;28;20032;-68
2023/10/08 01:42:16;;;;;;;13.57;7.30;;;;;;;11.93;85.72;100622.34;5088686;28;20480;-67
2023/10/08 01:44:46;;;;;;;12.40;6.97;;;;;;;11.86;85.76;100607.44;5089828;28;20032;-68
2023/10/08 01:47:12;;;;;;;13.98;7.72;;;;;;;11.89;85.68;100615.31;5089731;28;20028;-68
2023/10/08 01:49:39;;;;;;;14.75;7.07;;;;;;;11.91;85.47;100616.22;5089442;28;20109;-68
2023/10/08 01:52:12;;;;;;;11.95;7.40;;;;;;;11.95;85.61;100615.47;5053669;28;20055;-68
2023/10/08 01:54:38;;;;;;;11.50;7.57;;;;;;;11.77;84.96;100576.94;5089544;28;20074;-69
2023/10/08 01:57:04;;;;;;;10.77;6.40;;;;;;;11.92;85.41;100624.03;5089959;28;20455;-69
2023/10/08 01:59:31;;;;;;;11.85;7.20;;;;;;;11.93;85.23;100617.16;5089240;28;20115;-68
2023/10/08 02:01:57;;;;;;;10.70;7.65;;;;;;;11.90;84.84;100624.81;5089293;28;20115;-68
2023/10/08 02:04:23;;;;;;;12.98;7.10;;;;;;;11.94;84.83;100619.78;5090003;28;20063;-69
2023/10/08 02:06:48;;;;;;;10.70;7.10;;;;;;;11.84;85.52;100620.31;5089096;28;20601;-68
2023/10/08 02:09:15;;;;;;;11.98;7.25;;;;;;;11.77;86.07;100616.63;5089251;28;20036;-69
2023/10/08 02:11:53;;;;;;;11.05;7.28;;;;;;;11.74;86.63;100608.78;5089013;28;20059;-68
2023/10/08 02:14:20;;;;;;;15.48;7.78;;;;;;;11.62;87.10;100601.44;5089903;28;20036;-69
2023/10/08 02:16:46;;;;;;;12.73;7.65;;;;;;;11.68;87.72;100610.28;5089612;28;20060;-68
2023/10/08 02:19:12;;;;;;;9.88;6.80;;;;;;;11.47;87.52;100570.78;5089542;28;20040;-68
2023/10/08 02:21:41;;;;;;;10.73;6.90;;;;;;;11.65;87.77;100598.97;5053098;28;20126;-69
2023/10/08 02:24:08;;;;;;;13.80;6.70;;;;;;;11.72;87.21;100594.03;5089383;28;20032;-69
2023/10/08 02:26:36;;;;;;;11.95;7.43;;;;;;;11.86;87.06;100607.44;5089429;28;20123;-69
2023/10/08 02:29:10;;;;;;;13.27;7.00;;;;;;;11.88;86.88;100601.47;5089104;28;20399;-70
2023/10/08 02:31:37;;;;;;;13.63;7.00;;;;;;;11.78;86.75;100584.75;5088631;28;20500;-69
2023/10/08 02:34:03;;;;;;;11.95;7.15;;;;;;;11.89;87.37;100602.38;5088523;28;20043;-69
2023/10/08 02:36:30;;;;;;;12.35;6.90;;;;;;;11.70;88.60;100581.06;5089162;28;20383;-69
2023/10/08 02:38:56;;;;;;;9.50;6.55;;;;;;;11.51;90.26;100569.16;5089324;28;20032;-69
2023/10/08 02:41:24;;;;;;;10.60;6.82;;;;;;;11.63;91.08;100590.28;5089468;28;20098;-69
2023/10/08 02:43:49;;;;;;;11.85;6.78;;;;;;;11.73;90.60;100599.25;5088846;28;20077;-69
2023/10/08 02:46:15;;;;;;;11.75;6.80;;;;;;;11.88;89.86;100610.97;5089020;28;20059;-69
2023/10/08 02:48:41;;;;;;;11.57;8.30;;;;;;;11.89;89.26;100607.53;5089047;28;20039;-69
2023/10/08 02:51:13;;;;;;;12.30;7.40;;;;;;;11.98;88.58;100610.47;5092774;28;20032;-69
2023/10/08 02:53:41;;;;;;;12.73;7.00;;;;;;;11.84;87.73;100586.69;5092561;28;20481;-69
2023/10/08 02:56:12;;;;;;;12.15;6.60;;;;;;;11.99;87.63;100604.47;5093379;28;20044;-69
2023/10/08 02:58:39;;;;;;;14.32;7.68;;;;;;;12.04;87.46;100613.25;5092303;28;20557;-69
2023/10/08 03:01:04;;;;;;;13.40;7.13;;;;;;;12.12;86.29;100604.03;5092227;28;20028;-69
2023/10/08 03:03:32;;;;;;;16.60;8.93;;;;;;;12.23;85.67;100608.69;5092367;28;20044;-69
2023/10/08 03:05:58;;;;;;;11.55;7.30;;;;;;;12.18;85.75;100605.94;5092705;28;20035;-68
2023/10/08 03:08:43;;;;;;;11.05;7.68;;;;;;;12.20;85.23;100601.69;5030172;28;20105;-68
2023/10/08 03:11:16;;;;;;;11.82;7.22;;;;;;;12.03;84.78;100557.16;5030091;28;20558;-68
2023/10/08 03:13:51;;;;;;;11.38;7.47;;;;;;;12.22;84.50;100588.81;5029524;28;20088;-68
2023/10/08 03:16:21;;;;;;;10.20;6.57;;;;;;;12.24;84.26;100589.75;5018322;28;20041;-68
2023/10/08 03:18:50;;;;;;;12.13;7.68;;;;;;;12.18;84.35;100595.59;5029676;28;20038;-68
2023/10/08 03:24:06;;;;;;;10.90;6.70;;;;;;;11.90;85.27;100596.34;5027510;28;20486;-68
2023/10/08 03:29:00;;;;;;;11.80;8.35;;;;;;;11.65;86.40;100593.81;5029726;28;20407;-68
2023/10/08 03:31:49;;;;;;;14.38;7.80;;;;;;;11.41;86.56;100557.63;5029448;28;20041;-68
2023/10/08 03:34:14;;;;;;;12.73;8.90;;;;;;;11.53;86.38;100584.75;5029827;28;20049;-68
2023/10/08 03:36:50;;;;;;;11.45;7.45;;;;;;;11.60;85.85;100597.94;5028972;28;20516;-68
2023/10/08 03:39:17;;;;;;;11.48;7.63;;;;;;;11.63;85.83;100599.75;5035499;28;20497;-69
2023/10/08 03:41:51;;;;;;;10.35;6.75;;;;;;;11.71;85.30;100593.13;5045362;28;20116;-69
2023/10/08 03:44:17;;;;;;;23.83;7.85;;;;;;;11.55;84.98;100583.09;5040822;28;20040;-68
2023/10/08 03:46:43;;;;;;;11.55;7.07;;;;;;;11.69;84.96;100599.97;5049447;28;20041;-68
2023/10/08 03:49:24;;;;;;;9.60;6.72;;;;;;;11.72;84.41;100599.19;5037424;28;20562;-69
2023/10/08 03:51:52;;;;;;;9.57;6.60;;;;;;;11.69;82.89;100565.47;5036365;28;20068;-69
2023/10/08 03:54:48;;;;;;;12.20;7.20;;;;;;;12.05;81.61;100609.84;5035468;28;20176;-68
2023/10/08 03:57:15;;;;;;;16.95;8.38;;;;;;;11.85;81.60;100613.41;5027870;28;20092;-68
2023/10/08 03:59:41;;;;;;;15.45;8.32;;;;;;;11.35;82.33;100523.81;5033746;28;20139;-68
2023/10/08 04:04:57;;;;;;;21.98;8.90;;;;;;;11.65;82.09;100603.25;5091747;28;20488;-68
2023/10/08 04:12:34;;;;;;;12.05;7.05;;;;;;;11.76;82.22;100599.38;5091401;28;20036;-68
2023/10/08 04:15:07;;;;;;;12.52;7.82;;;;;;;11.78;83.32;100596.81;5091805;28;20452;-68
2023/10/08 04:17:43;;;;;;;16.25;7.88;;;;;;;11.88;83.96;100604.06;5091119;28;20036;-68
2023/10/08 04:20:30;;;;;;;11.05;7.13;;;;;;;11.98;83.93;100605.28;5091326;28;20032;-68
2023/10/08 04:22:56;;;;;;;15.25;7.53;;;;;;;11.93;83.26;100599.03;5090833;28;20097;-68
2023/10/08 04:25:21;;;;;;;11.18;6.95;;;;;;;12.04;81.95;100607.22;5091542;28;20063;-68
2023/10/08 04:27:49;;;;;;;11.15;6.85;;;;;;;12.04;81.71;100602.91;5091273;28;20036;-68
2023/10/08 04:30:16;;;;;;;12.52;6.78;;;;;;;11.94;81.44;100557.69;5091191;28;20040;-68
2023/10/08 04:32:42;;;;;;;11.80;6.97;;;;;;;12.10;80.51;100597.94;5091015;28;20106;-68
2023/10/08 04:35:14;;;;;;;17.90;7.47;;;;;;;11.88;81.85;100559.22;5090761;28;20069;-68
2023/10/08 04:37:40;;;;;;;11.63;7.07;;;;;;;12.01;81.81;100592.44;5091300;28;20044;-68
2023/10/08 04:40:15;;;;;;;12.05;6.90;;;;;;;12.15;82.05;100595.50;5090948;28;20455;-68
2023/10/08 04:42:44;;;;;;;13.85;6.88;;;;;;;12.17;82.68;100604.16;5042736;28;20028;-68
2023/10/08 04:45:13;;;;;;;11.48;6.72;;;;;;;12.06;83.68;100608.13;5090711;28;20454;-68
2023/10/08 04:47:42;;;;;;;11.07;6.78;;;;;;;11.93;85.09;100606.81;5091315;28;20067;-68
2023/10/08 04:50:14;;;;;;;12.90;7.87;;;;;;;11.75;86.17;100600.19;5090934;28;20064;-69
2023/10/08 04:52:45;;;;;;;13.27;7.50;;;;;;;11.63;87.29;100602.34;5090568;28;20089;-69
2023/10/08 04:55:20;;;;;;;11.50;7.00;;;;;;;11.54;87.85;100600.31;5090573;28;20066;-68
2023/10/08 04:57:49;;;;;;;11.57;6.68;;;;;;;11.44;88.10;100593.94;5089861;28;20032;-68
2023/10/08 05:00:15;;;;;;;12.97;7.57;;;;;;;11.35;88.71;100600.50;5090959;28;20486;-68
2023/10/08 05:02:50;;;;;;;14.80;7.80;;;;;;;11.23;89.41;100598.34;5090376;28;20098;-68
2023/10/08 05:16:02;;;;;;;12.07;7.85;;;;;;;11.10;90.67;100602.19;5090473;28;20032;-68
2023/10/08 05:18:54;;;;;;;11.38;6.72;;;;;;;10.95;89.46;100577.56;5090249;28;20119;-68
2023/10/08 05:21:25;;;;;;;12.27;7.38;;;;;;;11.21;88.87;100605.16;5046950;28;20118;-68
2023/10/08 05:24:08;;;;;;;13.27;6.90;;;;;;;11.38;87.54;100603.19;5089818;28;20088;-68
2023/10/08 05:26:49;;;;;;;11.25;6.57;;;;;;;11.29;87.05;100557.19;5089182;28;20115;-68
2023/10/08 05:29:51;;;;;;;11.30;6.55;;;;;;;11.76;85.15;100601.94;5084236;28;20040;-68
2023/10/08 05:32:37;;;;;;;11.68;6.70;;;;;;;11.72;83.86;100568.16;5073511;28;20055;-68
2023/10/08 05:59:52;;;;;;;9.70;4.78;;;;;;;13.86;70.57;100596.13;5022149;28;20045;-68
2023/10/08 06:05:22;;;;;;;10.35;4.97;;;;;;;14.30;67.04;100588.53;5023998;28;20490;-69
2023/10/08 06:07:56;;;;;;;9.05;5.38;;;;;;;14.47;65.76;100593.25;5023702;28;20053;-68
2023/10/08 06:13:16;;;;;;;11.85;5.68;;;;;;;14.82;64.86;100585.41;5058277;28;20410;-68
2023/10/08 06:15:48;;;;;;;10.52;5.22;;;;;;;15.07;63.22;100598.91;5053520;28;20048;-68
2023/10/08 06:18:25;;;;;;;10.90;5.30;;;;;;;15.13;62.95;100593.84;5059530;28;20113;-68
2023/10/08 06:20:58;;;;;;;9.93;5.32;;;;;;;15.25;63.41;100591.47;5068835;28;20065;-68
2023/10/08 06:23:25;;;;;;;9.90;5.10;;;;;;;15.30;62.51;100569.03;5068267;28;20127;-68
2023/10/08 06:25:58;;;;;;;12.10;6.13;;;;;;;15.18;62.92;100522.00;5063946;28;20032;-68
2023/10/08 06:28:25;;;;;;;11.32;5.88;;;;;;;15.79;62.31;100586.41;5060060;28;20073;-68
2023/10/08 06:30:56;;;;;;;8.57;5.05;;;;;;;15.78;61.71;100536.03;5063738;28;20028;-68
2023/10/08 06:33:25;;;;;;;12.75;5.22;;;;;;;16.27;60.97;100585.47;5082737;28;20464;-68
2023/10/08 06:36:13;;;;;;;11.48;5.10;;;;;;;16.43;58.59;100557.03;5091526;28;20041;-68
2023/10/08 06:38:40;;;;;;;12.20;5.57;;;;;;;16.73;58.63;100569.59;5093366;28;20459;-68
2023/10/08 06:41:15;;;;;;;11.77;5.50;;;;;;;16.68;57.39;100554.78;5090201;28;20076;-68
2023/10/08 06:43:49;;;;;;;10.38;4.72;;;;;;;17.01;55.78;100561.28;5093613;28;20036;-67
2023/10/08 06:46:18;;;;;;;9.18;4.88;;;;;;;17.20;52.53;100551.97;5092786;28;20039;-68
2023/10/08 06:48:45;;;;;;;9.80;5.07;;;;;;;17.02;51.90;100523.94;5093309;28;20098;-68
2023/10/08 06:51:17;;;;;;;9.80;4.88;;;;;;;16.86;52.03;100528.06;5092956;28;20117;-68
2023/10/08 06:53:44;;;;;;;11.00;4.88;;;;;;;17.14;52.22;100566.66;5093433;28;20028;-67
2023/10/08 06:59:09;;;;;;;9.77;4.43;;;;;;;17.38;52.25;100565.19;5418538;22;20055;-68
2023/10/08 07:01:45;;;;;;;8.88;4.00;;;;;;;17.43;51.27;100557.41;5092959;28;20085;-67
2023/10/08 07:04:12;;;;;;;7.85;4.47;;;;;;;17.55;51.10;100554.06;5076680;28;20051;-68
2023/10/08 07:06:41;;;;;;;7.13;3.97;;;;;;;17.68;50.44;100550.69;5078804;28;20044;-67
2023/10/08 07:09:23;;;;;;;14.27;5.28;;;;;;;17.69;50.27;100538.53;5092915;28;20020;-66
2023/10/08 07:11:54;;;;;;;8.98;4.10;;;;;;;17.88;50.14;100548.28;5092969;28;20040;-67
2023/10/08 07:14:27;;;;;;;11.88;4.57;;;;;;;18.19;49.83;100537.19;5075702;28;20031;-67
2023/10/08 07:17:06;;;;;;;10.65;4.88;;;;;;;18.45;49.04;100533.88;5092958;28;20126;-67
2023/10/08 07:19:38;;;;;;;10.55;4.82;;;;;;;18.75;47.79;100535.75;5089909;28;20039;-66
2023/10/08 07:22:17;;;;;;;12.65;4.57;;;;;;;18.81;47.40;100537.53;5072516;28;20460;-66
2023/10/08 07:24:45;;;;;;;11.00;5.10;;;;;;;18.89;46.62;100539.31;5090473;28;20556;-67
2023/10/08 07:27:11;;;;;;;9.10;4.28;;;;;;;18.84;46.56;100499.19;5079838;28;20120;-68
2023/10/08 07:29:37;;;;;;;11.43;4.97;;;;;;;19.22;46.57;100537.69;5085044;28;20402;-68
2023/10/08 07:32:09;;;;;;;8.82;4.20;;;;;;;19.38;47.16;100535.13;5081310;28;20047;-68
2023/10/08 07:34:36;;;;;;;11.93;6.40;;;;;;;19.57;47.49;100517.69;5081734;28;20024;-68
2023/10/08 07:37:02;;;;;;;10.18;4.93;;;;;;;19.68;45.77;100515.94;5090195;28;20028;-68
2023/10/08 07:41:56;;;;;;;9.45;4.55;;;;;;;20.15;44.60;100505.44;5077729;28;20115;-67
2023/10/08 07:44:23;;;;;;;10.40;3.80;;;;;;;20.40;42.19;100513.25;5090269;28;20038;-69
2023/10/08 07:46:50;;;;;;;8.85;4.53;;;;;;;20.56;42.34;100503.56;5091982;28;20062;-66
2023/10/08 07:49:15;;;;;;;9.68;4.18;;;;;;;20.83;41.23;100506.09;5092057;28;20036;-67
2023/10/08 07:51:40;;;;;;;8.70;3.97;;;;;;;20.78;40.49;100471.16;5088431;28;20484;-67
2023/10/08 07:54:09;;;;;;;7.07;3.55;;;;;;;21.19;39.78;100512.94;5092162;28;20101;-67
2023/10/08 07:56:37;;;;;;;8.07;3.50;;;;;;;21.32;39.68;100504.06;5091857;28;20043;-68
2023/10/08 07:59:08;;;;;;;9.48;3.70;;;;;;;21.34;39.23;100461.16;5090899;28;20047;-67
2023/10/08 08:01:34;;;;;;;8.35;3.33;;;;;;;21.68;38.05;100493.34;5091878;28;20028;-67
2023/10/08 08:04:00;;;;;;;10.75;5.00;;;;;;;21.77;36.85;100491.50;5055865;28;20048;-67
2023/10/08 08:06:25;;;;;;;9.98;5.40;;;;;;;21.80;37.33;100474.84;5088977;28;20085;-67
2023/10/08 08:08:51;;;;;;;8.20;3.30;;;;;;;21.87;37.08;100471.28;5091708;28;20367;-66
2023/10/08 08:11:24;;;;;;;8.25;3.78;;;;;;;21.80;37.11;100441.53;5092094;28;20089;-69
2023/10/08 08:13:50;;;;;;;13.00;4.28;;;;;;;22.08;36.35;100461.41;5089762;28;20036;-68
2023/10/08 08:16:17;;;;;;;8.95;4.65;;;;;;;22.09;36.52;100439.50;5091855;28;20040;-69
2023/10/08 08:18:46;;;;;;;7.50;3.20;;;;;;;22.28;35.21;100453.28;5091731;28;20024;-67
2023/10/08 08:21:15;;;;;;;6.60;3.40;;;;;;;22.30;35.36;100436.59;5091788;28;20036;-67
2023/10/08 08:23:48;;;;;;;9.75;3.55;;;;;;;22.38;34.73;100438.31;5091473;28;20051;-68
2023/10/08 08:26:32;;;;;;;7.18;3.13;;;;;;;22.52;34.37;100443.41;5091256;28;20034;-67
2023/10/08 08:29:01;;;;;;;8.20;3.65;;;;;;;22.71;34.64;100438.78;5091527;28;20032;-68
2023/10/08 08:31:35;;;;;;;9.73;4.32;;;;;;;22.57;33.57;100405.63;5088517;28;20035;-68
2023/10/08 08:34:13;;;;;;;10.07;3.70;;;;;;;22.84;33.21;100426.31;5090599;28;20055;-68
2023/10/08 08:36:45;;;;;;;8.80;3.33;;;;;;;22.91;33.33;100435.84;5055326;28;20043;-67
2023/10/08 08:39:11;;;;;;;9.43;3.50;;;;;;;22.90;33.31;100434.13;5089965;28;20047;-69
2023/10/08 08:41:37;;;;;;;8.80;3.30;;;;;;;22.78;33.02;100412.34;5090868;28;20036;-68
2023/10/08 08:44:06;;;;;;;9.18;3.95;;;;;;;22.90;33.16;100437.63;5091091;28;20054;-68
2023/10/08 08:46:37;;;;;;;11.88;4.38;;;;;;;23.01;33.82;100442.72;5090473;28;20073;-68
2023/10/08 08:49:07;;;;;;;14.10;4.18;;;;;;;23.05;32.79;100433.91;5091076;28;20401;-68
2023/10/08 08:51:55;;;;;;;9.70;4.38;;;;;;;23.06;32.71;100405.78;5065879;28;20035;-68
2023/10/08 08:54:21;;;;;;;8.70;3.60;;;;;;;23.26;32.85;100429.22;5082606;28;20106;-68
2023/10/08 08:56:48;;;;;;;14.07;4.25;;;;;;;23.49;32.83;100427.94;5087718;28;20114;-68
2023/10/08 08:59:17;;;;;;;14.98;4.43;;;;;;;23.53;32.55;100424.38;5087608;28;20048;-69
2023/10/08 09:01:43;;;;;;;9.80;3.60;;;;;;;23.48;32.77;100394.59;5070984;28;20089;-68
2023/10/08 09:04:08;;;;;;;10.77;3.88;;;;;;;23.55;31.92;100404.13;5087951;28;20052;-68
2023/10/08 09:06:37;;;;;;;9.35;3.50;;;;;;;23.56;31.73;100408.50;5087817;28;20024;-69
2023/10/08 09:09:23;;;;;;;8.02;3.50;;;;;;;23.64;31.76;100400.44;5087693;28;20032;-68
2023/10/08 09:11:52;;;;;;;8.98;4.20;;;;;;;23.71;31.56;100408.25;5086400;28;20036;-69
2023/10/08 09:14:26;;;;;;;22.20;8.55;;;;;;;23.96;32.79;100409.56;5084830;28;20602;-68
2023/10/08 09:16:54;;;;;;;15.35;6.53;;;;;;;23.96;33.51;100406.94;5068989;28;20130;-68
2023/10/08 09:19:22;;;;;;;14.00;5.72;;;;;;;24.12;31.65;100404.84;5085004;28;20040;-69
2023/10/08 09:22:07;;;;;;;15.30;5.93;;;;;;;24.25;31.49;100403.72;5087173;28;20484;-68
2023/10/08 09:24:36;;;;;;;10.15;4.28;;;;;;;24.14;31.31;100393.38;5089217;28;20071;-69
2023/10/08 09:27:15;;;;;;;8.35;3.90;;;;;;;24.09;31.57;100373.25;5087683;28;20031;-67
2023/10/08 09:29:42;;;;;;;7.38;3.72;;;;;;;24.32;30.73;100394.75;5087262;28;20497;-68
2023/10/08 09:32:23;;;;;;;6.65;3.20;;;;;;;24.52;30.75;100394.34;5088144;28;20024;-69
2023/10/08 09:34:50;;;;;;;16.55;4.10;;;;;;;24.63;30.34;100387.94;5089198;28;20032;-67
2023/10/08 09:37:17;;;;;;;9.65;4.55;;;;;;;24.65;30.82;100392.31;5089568;28;20127;-68
2023/10/08 09:39:42;;;;;;;10.88;3.80;;;;;;;24.68;30.54;100335.94;5090066;28;20490;-68
2023/10/08 09:42:14;;;;;;;7.75;3.67;;;;;;;25.15;29.18;100372.66;5069805;28;20042;-68
2023/10/08 09:44:40;;;;;;;7.10;3.40;;;;;;;25.11;28.26;100355.13;5090065;28;20028;-70
2023/10/08 09:47:08;;;;;;;6.90;3.65;;;;;;;25.06;28.36;100320.94;5089763;28;20076;-69
2023/10/08 09:49:42;;;;;;;9.43;3.88;;;;;;;25.39;28.50;100343.91;5089581;28;20032;-69
2023/10/08 09:52:08;;;;;;;10.32;3.95;;;;;;;25.27;28.30;100302.78;5087848;28;20105;-69
2023/10/08 09:54:44;;;;;;;5.88;3.03;;;;;;;25.71;28.02;100335.09;5089998;28;20478;-69
2023/10/08 09:57:10;;;;;;;6.95;3.15;;;;;;;25.75;25.97;100335.88;5087815;28;20040;-70
2023/10/08 09:59:41;;;;;;;8.90;3.40;;;;;;;25.76;26.99;100329.69;5093027;28;20070;-69
2023/10/08 10:02:09;;;;;;;6.57;3.10;;;;;;;25.91;26.10;100321.28;5090704;28;20079;-69
2023/10/08 10:04:42;;;;;;;9.73;3.40;;;;;;;25.97;26.36;100313.19;5093708;28;20028;-68
2023/10/08 10:07:12;;;;;;;5.65;2.90;;;;;;;26.07;26.05;100319.09;5092546;28;20115;-69
2023/10/08 10:09:40;;;;;;;7.57;3.33;;;;;;;26.10;25.53;100312.84;5093938;28;20059;-69
2023/10/08 10:12:09;;;;;;;8.32;3.20;;;;;;;26.30;26.19;100294.56;5075938;28;20053;-67
2023/10/08 10:14:56;;;;;;;6.57;3.17;;;;;;;26.47;25.67;100312.56;5093708;28;20044;-67
2023/10/08 10:17:25;;;;;;;5.68;3.25;;;;;;;26.38;25.51;100306.69;5092592;28;20036;-68
2023/10/08 10:19:59;;;;;;;7.93;2.97;;;;;;;26.34;26.14;100299.78;5094194;28;20032;-70
2023/10/08 10:22:35;;;;;;;7.30;3.25;;;;;;;26.48;25.39;100301.06;5094267;28;20042;-69
2023/10/08 10:25:14;;;;;;;11.75;3.38;;;;;;;26.51;25.51;100259.53;5093112;28;20055;-69
2023/10/08 10:28:04;;;;;;;7.50;3.40;;;;;;;26.52;26.24;100279.78;5054740;28;20036;-70
2023/10/08 10:30:30;;;;;;;8.77;3.70;;;;;;;26.60;26.65;100252.13;5092938;28;20413;-69
2023/10/08 10:32:59;;;;;;;8.60;3.35;;;;;;;27.00;26.28;100268.50;5094246;28;20028;-70
2023/10/08 10:35:27;;;;;;;12.57;5.78;;;;;;;27.01;26.25;100272.03;5093303;28;20471;-69
2023/10/08 10:37:55;;;;;;;18.83;9.18;;;;;;;27.06;26.47;100272.72;5093343;28;20071;-68
2023/10/08 10:40:29;;;;;;;6.68;3.58;;;;;;;27.28;25.45;100255.13;5092962;28;20089;-69
2023/10/08 10:43:00;;;;;;;22.25;8.60;;;;;;;27.44;25.49;100260.78;5034228;28;20118;-69
2023/10/08 10:45:43;;;;;;;8.80;4.22;;;;;;;27.49;25.91;100223.50;5090940;28;20101;-70
2023/10/08 10:48:21;;;;;;;10.35;3.85;;;;;;;27.55;25.58;100249.78;5093244;28;20107;-67
2023/10/08 10:53:44;;;;;;;7.72;3.33;;;;;;;27.56;25.83;100240.03;5093244;28;20413;-69
2023/10/08 10:56:18;;;;;;;7.00;3.33;;;;;;;27.71;25.83;100238.59;5092572;28;20055;-69
2023/10/08 10:58:46;;;;;;;7.65;3.45;;;;;;;27.71;25.69;100231.50;5091227;28;20391;-69
2023/10/08 11:01:24;;;;;;;6.22;3.40;;;;;;;27.68;25.28;100236.06;5092976;28;20028;-68
2023/10/08 11:03:51;;;;;;;10.18;3.45;;;;;;;27.23;25.18;100176.72;5076397;28;20127;-69
2023/10/08 11:06:22;;;;;;;9.73;3.13;;;;;;;27.37;25.99;100197.41;5089859;28;20027;-70
2023/10/08 11:08:52;;;;;;;8.85;4.03;;;;;;;27.84;25.80;100223.94;5092783;28;20064;-69
2023/10/08 11:11:28;;;;;;;6.07;2.80;;;;;;;27.94;26.69;100216.50;5088861;28;20486;-69
2023/10/08 11:14:03;;;;;;;6.03;2.60;;;;;;;27.83;25.47;100214.25;5092612;28;20044;-69
2023/10/08 11:16:31;;;;;;;7.57;3.05;;;;;;;27.79;26.10;100207.34;5091107;28;20040;-69
2023/10/08 11:19:06;;;;;;;12.77;3.17;;;;;;;27.62;26.14;100196.53;5089206;28;20044;-69
2023/10/08 11:21:33;;;;;;;9.25;3.08;;;;;;;27.80;26.26;100195.78;5092308;28;20032;-69
2023/10/08 11:24:01;;;;;;;8.00;2.92;;;;;;;27.60;26.18;100159.44;5091206;28;20032;-69
2023/10/08 11:26:38;;;;;;;7.43;2.80;;;;;;;28.05;25.69;100193.06;5092552;28;20032;-69
2023/10/08 11:29:05;;;;;;;6.03;2.78;;;;;;;27.81;25.64;100184.25;5089659;28;20035;-69
2023/10/08 11:31:33;;;;;;;6.93;2.85;;;;;;;28.08;25.85;100184.13;5091945;28;20039;-69
2023/10/08 11:34:09;;;;;;;6.35;2.85;;;;;;;28.17;25.73;100166.97;5091690;28;20028;-69
2023/10/08 11:36:48;;;;;;;6.63;2.88;;;;;;;28.11;25.31;100157.44;5091939;28;20043;-68
2023/10/08 11:39:21;;;;;;;;;;;;;;;28.29;25.46;100178.84;5091344;28;20043;-69
2023/10/08 11:42:25;;;;;;;7.22;2.90;;;;;;;28.32;26.10;100168.97;5090177;28;19911;-68
2023/10/08 11:44:52;;;;;;;10.30;3.30;;;;;;;28.41;26.28;100165.06;5091698;28;20032;-69
2023/10/08 11:47:21;;;;;;;8.75;2.58;;;;;;;28.36;26.67;100153.78;5091705;28;20661;-69
2023/10/08 11:50:09;;;;;;;7.72;3.00;;;;;;;28.42;25.30;100158.81;5091897;28;20454;-68
2023/10/08 11:52:41;;;;;;;7.30;3.05;;;;;;;28.41;25.82;100150.00;5047440;28;20033;-69
2023/10/08 11:55:07;;;;;;;10.25;2.70;;;;;;;28.57;25.24;100154.66;5048775;28;20041;-69
2023/10/08 11:57:35;;;;;;;10.65;2.70;;;;;;;28.78;25.37;100147.56;5049389;28;20564;-69
2023/10/08 12:00:18;;;;;;;6.88;2.97;;;;;;;28.69;25.50;100130.25;5048928;28;20045;-68
2023/10/08 12:02:46;;;;;;;7.82;3.10;;;;;;;28.80;26.65;100151.03;5045947;28;20045;-68
2023/10/08 12:05:18;;;;;;;6.60;2.70;;;;;;;28.80;25.23;100137.75;5048708;28;20033;-68
2023/10/08 12:07:47;;;;;;;6.90;2.65;;;;;;;28.76;25.54;100127.31;5045931;28;20036;-68
2023/10/08 12:10:16;;;;;;;6.55;2.42;;;;;;;28.79;25.68;100127.19;5047975;28;20048;-69
2023/10/08 12:12:42;;;;;;;7.50;3.17;;;;;;;28.73;25.42;100123.84;5048449;28;20110;-68
2023/10/08 12:15:09;;;;;;;5.28;2.55;;;;;;;28.83;25.33;100120.81;5048481;28;20037;-68
2023/10/08 12:17:39;;;;;;;5.10;2.50;;;;;;;29.01;25.58;100116.44;5031973;28;20036;-68
2023/10/08 12:20:22;;;;;;;10.38;3.20;;;;;;;28.78;25.23;100089.13;5045881;28;20053;-68
2023/10/08 12:22:52;;;;;;;6.82;2.92;;;;;;;28.85;25.45;100103.00;5024789;28;20044;-68
2023/10/08 12:25:17;;;;;;;5.38;2.47;;;;;;;28.95;25.33;100098.13;5072209;28;20089;-68
2023/10/08 12:27:43;;;;;;;5.18;2.47;;;;;;;28.86;25.17;100073.69;5087249;28;20044;-69
2023/10/08 12:30:10;;;;;;;7.32;3.28;;;;;;;28.93;24.82;100089.38;5019133;28;20099;-69
2023/10/08 12:32:42;;;;;;;5.88;2.70;;;;;;;28.95;25.52;100104.31;5071319;28;20076;-68
2023/10/08 12:35:17;;;;;;;6.03;3.13;;;;;;;28.98;25.96;100087.34;5071413;28;20474;-68
2023/10/08 12:37:44;;;;;;;8.77;2.60;;;;;;;29.02;25.64;100092.47;5071176;28;20064;-69
2023/10/08 12:40:23;;;;;;;13.57;2.72;;;;;;;29.00;26.03;100080.19;5071406;28;20125;-68
2023/10/08 12:42:50;;;;;;;;;;;;;;;29.03;24.98;100077.38;5009327;28;20076;-68
2023/10/08 12:45:20;;;;;;;4.60;2.53;;;;;;;28.94;25.32;100056.56;5009103;28;19945;-68